Trenton, Indiana
Current Conditions -  °F | °C
As of 6:53 AM on Saturday 25 Oct 2014 (Local Time) from KMIE Reporting Station
Overcast Overcast  
Wind Chill: 57°   Ceiling: 3200
Heat Index: 57°   Visibility: 10mi
Dew Point: 50°   Wind: 8mph
Humidity: 77%   Direction: 220°SW
Pressure: 29.94"   Gusts: NA
Location:  40.4568°N, 85.3505°W
Report Text: KMIE 251053Z 22007KT 10SM OVC032 14/10 A2994 RMK AO2 SLP134 T01390100
Loading
Personal Weather Stations






























Interactive Weather Map
Tropical Storm Tracking
New forecast layout! Learn more

10-Day Weather Forecast

Advertisements
Track Severe Weather on mobile